WetterOnline ( https://www.wetteronline.de )

Wetter aktuell Neu-Ulm

Aktuelles Wetter: Ulm-Mähringen (592m)

6-stündlich | Neueste Meldungen
Ortszeit Temperatur Wetter
Sa, 18.05. 20:00 12.6° C starker Regen
Sa, 18.05. 14:00 17.4° C leicht bewölkt
Sa, 18.05. 8:00 10.8° C bedeckt
Sa, 18.05. 2:00 9.8° C bedeckt
Fr, 17.05. 20:00 10.2° C leichter Regen
Fr, 17.05. 14:00 9.8° C leichter Regen
Fr, 17.05. 8:00 9.2° C leichter Regen
Fr, 17.05. 2:00 10.7° C starker Regen
Ortszeit Temperatur Wetter
So, 19.05. 1:00 10.1° C bewölkt
So, 19.05. 0:50 10.1° C bewölkt
So, 19.05. 0:40 10.0° C bewölkt
So, 19.05. 0:30 10.2° C bewölkt
So, 19.05. 0:20 10.2° C bewölkt
So, 19.05. 0:10 10.2° C bedeckt
So, 19.05. 0:00 10.3° C bewölkt
Sa, 18.05. 23:30 9.8° C wolkig
Sa, 18.05. 23:00 10.1° C wolkig
Sa, 18.05. 22:30 10.6° C wolkig
Sa, 18.05. 22:00 11.2° C bewölkt
Ortszeit Relative Feuchte Sichtweite
Sa, 18.05. 20:00 85% 4.7 km
Sa, 18.05. 14:00 52% 65 km
Sa, 18.05. 8:00 82% >70 km
Sa, 18.05. 2:00 88% >70 km
Fr, 17.05. 20:00 83% 60 km
Fr, 17.05. 14:00 91% 8 km
Fr, 17.05. 8:00 92% 23 km
Fr, 17.05. 2:00 99% 2.2 km
Ortszeit Relative Feuchte Sichtweite
So, 19.05. 1:00 92% 65 km
So, 19.05. 0:50 92% -
So, 19.05. 0:40 92% -
So, 19.05. 0:30 92% >70 km
So, 19.05. 0:20 92% -
So, 19.05. 0:10 92% -
So, 19.05. 0:00 92% >70 km
Sa, 18.05. 23:30 94% 50 km
Sa, 18.05. 23:00 90% >70 km
Sa, 18.05. 22:30 89% >70 km
Sa, 18.05. 22:00 87% 65 km
Ortszeit Niederschlagsmenge Niederschlagsart
Sa, 18.05. 20:00 1 l/m2 in 12 Std. Regen
Sa, 18.05. 14:00 0.0 l/m2 in 6 Std. -
Sa, 18.05. 8:00 0.4 l/m2 in 12 Std. -
Sa, 18.05. 2:00 0.4 l/m2 in 6 Std. Regen
Fr, 17.05. 20:00 6 l/m2 in 12 Std. Regen
Fr, 17.05. 14:00 2 l/m2 in 6 Std. Regen
Fr, 17.05. 8:00 26 l/m2 in 12 Std. Regen
Fr, 17.05. 2:00 12 l/m2 in 6 Std. Regen
Ortszeit Niederschlagsmenge Niederschlagsart
So, 19.05. 1:00 0.0 l/m2 in 1 Std. -
So, 19.05. 0:50 keine Meldung -
So, 19.05. 0:40 keine Meldung -
So, 19.05. 0:30 0.0 l/m2 in 30 Min -
So, 19.05. 0:20 keine Meldung -
So, 19.05. 0:10 keine Meldung -
So, 19.05. 0:00 0.0 l/m2 in 1 Std. -
Sa, 18.05. 23:30 0.0 l/m2 in 30 Min -
Sa, 18.05. 23:00 0.0 l/m2 in 1 Std. Regen
Sa, 18.05. 22:30 0.0 l/m2 in 30 Min -
Sa, 18.05. 22:00 <0.05 l/m2 in 1 Std. -
Ortszeit Stärke Spitze Richtung
km/h Bft. km/h Grad Sektor
Sa, 18.05. 20:00 28 4 52 270° W
Sa, 18.05. 14:00 17 3 31 250° W
Sa, 18.05. 8:00 13 3 22 240° SW
Sa, 18.05. 2:00 13 3 26 230° SW
Fr, 17.05. 20:00 15 3 48 250° W
Fr, 17.05. 14:00 18 3 43 240° SW
Fr, 17.05. 8:00 19 3 33 220° SW
Fr, 17.05. 2:00 11 2 32 220° SW
Ortszeit Stärke Spitze Richtung
km/h Bft. km/h Grad Sektor
So, 19.05. 1:00 7 2 18 250° W
So, 19.05. 0:50 7 2 - 250° W
So, 19.05. 0:40 7 2 - 250° W
So, 19.05. 0:30 9 2 19 240° SW
So, 19.05. 0:20 9 2 - 240° SW
So, 19.05. 0:10 11 2 - 230° SW
So, 19.05. 0:00 14 3 25 200° S
Sa, 18.05. 23:30 14 3 22 190° S
Sa, 18.05. 23:00 7 2 14 230° SW
Sa, 18.05. 22:30 6 1 13 290° W
Sa, 18.05. 22:00 7 2 30 290° W
Ortszeit Untergrenze Bedeckung Gattung
total tief tief mittel hoch
Sa, 18.05. 20:00 300 m 8/8 7/8 - - -
Sa, 18.05. 14:00 1500 m 4/8 4/8 - - -
Sa, 18.05. 8:00 3300 m 8/8 8/8 - - -
Sa, 18.05. 2:00 2100 m 8/8 8/8 - - -
Fr, 17.05. 20:00 1440 m 4/8 4/8 - - -
Fr, 17.05. 14:00 540 m 8/8 8/8 - - -
Fr, 17.05. 8:00 210 m 8/8 8/8 - - -
Fr, 17.05. 2:00 60 m 8/8 8/8 - - -
Ortszeit Bedeckungsgrad in Achtel und Wolkenuntergrenze
So, 19.05. 1:00 1(2100m) 7(2700m)
So, 19.05. 0:50 1(2100m) 7(2700m)
So, 19.05. 0:40 7
So, 19.05. 0:30 4(1800m) 8(3000m) 8(6000m)
So, 19.05. 0:20 4(1800m) 8(3000m) 8(6000m)
So, 19.05. 0:10 8
So, 19.05. 0:00 7(2100m) 7(2700m) 7(3300m)
Sa, 18.05. 23:30 5(3000m) 7(7500m)
Sa, 18.05. 23:00 1(2100m) 8(7500m)
Sa, 18.05. 22:30 4(2400m) 5(3300m) 7(7500m)
Sa, 18.05. 22:00 7(2700m) 8(3600m) 8(7500m)
Ortszeit Luftdruck NN (hPa) Tendenz (hPa in 3 Std.)
Sa, 18.05. 20:00 1011 + 0,4
Sa, 18.05. 14:00 1011 - 0,2
Sa, 18.05. 8:00 1012 + 0,9
Sa, 18.05. 2:00 1011 0,0
Fr, 17.05. 20:00 1010 + 1,0
Fr, 17.05. 14:00 1008 + 1,6
Fr, 17.05. 8:00 1005 + 1,4
Fr, 17.05. 2:00 1004 - 0,2
Ortszeit Luftdruck NN (hPa) Tendenz (hPa in 3 Std.)
So, 19.05. 1:00 1013 + 0,7
So, 19.05. 0:50 1013 keine Meldung
So, 19.05. 0:40 1014 keine Meldung
So, 19.05. 0:30 1014 + 1,5
So, 19.05. 0:20 1014 keine Meldung
So, 19.05. 0:10 1014 keine Meldung
So, 19.05. 0:00 1014 + 1,6
Sa, 18.05. 23:30 1014 + 1,1
Sa, 18.05. 23:00 1013 + 0,7
Sa, 18.05. 22:30 1012 + 1,5
Sa, 18.05. 22:00 1012 + 1,7
Ortszeit Schneehöhe (cm)
Sa, 18.05. 20:00 0
Sa, 18.05. 14:00 0
Sa, 18.05. 8:00 0
Sa, 18.05. 2:00 0
Fr, 17.05. 20:00 0
Fr, 17.05. 14:00 0
Fr, 17.05. 8:00 0
Fr, 17.05. 2:00 0
Ortszeit Schneehöhe (cm)
So, 19.05. 1:00 0
So, 19.05. 0:50 0
So, 19.05. 0:40 -
So, 19.05. 0:30 0
So, 19.05. 0:20 0
So, 19.05. 0:10 -
So, 19.05. 0:00 0
Sa, 18.05. 23:30 0
Sa, 18.05. 23:00 0
Sa, 18.05. 22:30 0
Sa, 18.05. 22:00 0
Link zu dieser Seite / Seite empfehlen

Das Wetter in ...